sensor_id;sensor_type;location;lat;lon;timestamp;pressure;altitude;pressure_sealevel;temperature;humidity
8627;BME280;4351;51.422;6.794;2023-03-05T00:01:27;102058.09;;;5.25;100.00
8627;BME280;4351;51.422;6.794;2023-03-05T00:03:56;102054.72;;;5.66;100.00
8627;BME280;4351;51.422;6.794;2023-03-05T00:06:26;102054.41;;;5.32;100.00
8627;BME280;4351;51.422;6.794;2023-03-05T00:08:54;102061.69;;;5.24;100.00
8627;BME280;4351;51.422;6.794;2023-03-05T00:11:24;102058.06;;;5.28;100.00
8627;BME280;4351;51.422;6.794;2023-03-05T00:13:57;102061.78;;;5.19;100.00
8627;BME280;4351;51.422;6.794;2023-03-05T00:16:26;102059.38;;;5.00;100.00
8627;BME280;4351;51.422;6.794;2023-03-05T00:18:54;102061.59;;;5.30;100.00
8627;BME280;4351;51.422;6.794;2023-03-05T00:21:24;102061.72;;;5.21;100.00
8627;BME280;4351;51.422;6.794;2023-03-05T00:23:53;102060.03;;;5.16;100.00
8627;BME280;4351;51.422;6.794;2023-03-05T00:26:23;102057.25;;;5.23;100.00
8627;BME280;4351;51.422;6.794;2023-03-05T00:28:53;102054.91;;;5.53;100.00
8627;BME280;4351;51.422;6.794;2023-03-05T00:31:24;102052.44;;;5.42;100.00
8627;BME280;4351;51.422;6.794;2023-03-05T00:33:57;102058.94;;;5.28;100.00
8627;BME280;4351;51.422;6.794;2023-03-05T00:36:26;102058.38;;;5.08;100.00
8627;BME280;4351;51.422;6.794;2023-03-05T00:38:54;102056.38;;;5.21;100.00
8627;BME280;4351;51.422;6.794;2023-03-05T00:41:22;102056.34;;;5.24;100.00
8627;BME280;4351;51.422;6.794;2023-03-05T00:43:50;102053.84;;;5.11;100.00
8627;BME280;4351;51.422;6.794;2023-03-05T00:46:18;102054.97;;;4.98;100.00
8627;BME280;4351;51.422;6.794;2023-03-05T00:48:47;102052.06;;;5.12;100.00
8627;BME280;4351;51.422;6.794;2023-03-05T00:51:15;102052.28;;;4.99;100.00
8627;BME280;4351;51.422;6.794;2023-03-05T00:53:43;102041.56;;;4.99;100.00
8627;BME280;4351;51.422;6.794;2023-03-05T00:56:11;102040.19;;;5.30;100.00
8627;BME280;4351;51.422;6.794;2023-03-05T00:58:39;102044.63;;;5.29;100.00
8627;BME280;4351;51.422;6.794;2023-03-05T01:01:07;102033.50;;;5.01;100.00
8627;BME280;4351;51.422;6.794;2023-03-05T01:03:35;102037.03;;;5.03;100.00
8627;BME280;4351;51.422;6.794;2023-03-05T01:06:07;102035.22;;;5.06;100.00
8627;BME280;4351;51.422;6.794;2023-03-05T01:08:35;102033.41;;;5.07;100.00
8627;BME280;4351;51.422;6.794;2023-03-05T01:11:04;102031.00;;;4.91;100.00
8627;BME280;4351;51.422;6.794;2023-03-05T01:13:33;102035.28;;;5.02;100.00
8627;BME280;4351;51.422;6.794;2023-03-05T01:16:01;102027.03;;;5.16;100.00
8627;BME280;4351;51.422;6.794;2023-03-05T01:18:30;102026.44;;;4.97;100.00
8627;BME280;4351;51.422;6.794;2023-03-05T01:20:57;102027.28;;;5.00;100.00
8627;BME280;4351;51.422;6.794;2023-03-05T01:23:27;102018.25;;;5.08;100.00
8627;BME280;4351;51.422;6.794;2023-03-05T01:25:56;102023.03;;;4.88;100.00
8627;BME280;4351;51.422;6.794;2023-03-05T01:28:26;102019.41;;;4.91;100.00
8627;BME280;4351;51.422;6.794;2023-03-05T01:30:54;102019.19;;;5.05;100.00
8627;BME280;4351;51.422;6.794;2023-03-05T01:33:22;102014.16;;;4.86;100.00
8627;BME280;4351;51.422;6.794;2023-03-05T01:35:51;102012.44;;;4.82;100.00
8627;BME280;4351;51.422;6.794;2023-03-05T01:38:18;102013.34;;;4.79;100.00
8627;BME280;4351;51.422;6.794;2023-03-05T01:40:48;102011.16;;;5.06;100.00
8627;BME280;4351;51.422;6.794;2023-03-05T01:43:23;102001.41;;;5.01;100.00
8627;BME280;4351;51.422;6.794;2023-03-05T01:46:16;101998.19;;;4.80;100.00
8627;BME280;4351;51.422;6.794;2023-03-05T01:48:50;101996.53;;;4.72;100.00
8627;BME280;4351;51.422;6.794;2023-03-05T01:51:21;101999.69;;;4.97;100.00
8627;BME280;4351;51.422;6.794;2023-03-05T01:53:52;101994.41;;;4.93;100.00
8627;BME280;4351;51.422;6.794;2023-03-05T01:56:25;101992.69;;;4.91;100.00
8627;BME280;4351;51.422;6.794;2023-03-05T01:58:54;101988.47;;;4.76;100.00
8627;BME280;4351;51.422;6.794;2023-03-05T02:01:35;101989.31;;;4.78;100.00
8627;BME280;4351;51.422;6.794;2023-03-05T02:04:07;101985.72;;;4.79;100.00
8627;BME280;4351;51.422;6.794;2023-03-05T02:06:36;101982.97;;;4.83;100.00
8627;BME280;4351;51.422;6.794;2023-03-05T02:09:05;101976.69;;;4.86;100.00
8627;BME280;4351;51.422;6.794;2023-03-05T02:11:34;101978.38;;;4.93;100.00
8627;BME280;4351;51.422;6.794;2023-03-05T02:14:04;101968.22;;;5.11;100.00
8627;BME280;4351;51.422;6.794;2023-03-05T02:16:36;101967.72;;;4.90;100.00
8627;BME280;4351;51.422;6.794;2023-03-05T02:19:07;101963.31;;;4.86;100.00
8627;BME280;4351;51.422;6.794;2023-03-05T02:21:38;101960.75;;;4.80;100.00
8627;BME280;4351;51.422;6.794;2023-03-05T02:24:10;101964.28;;;4.82;100.00
8627;BME280;4351;51.422;6.794;2023-03-05T02:26:39;101953.50;;;4.88;100.00
8627;BME280;4351;51.422;6.794;2023-03-05T02:29:09;101951.72;;;4.87;100.00
8627;BME280;4351;51.422;6.794;2023-03-05T02:31:40;101943.81;;;4.79;100.00
8627;BME280;4351;51.422;6.794;2023-03-05T02:34:08;101947.47;;;4.75;100.00
8627;BME280;4351;51.422;6.794;2023-03-05T02:36:38;101952.81;;;4.75;100.00
8627;BME280;4351;51.422;6.794;2023-03-05T02:39:07;101947.41;;;4.78;100.00
8627;BME280;4351;51.422;6.794;2023-03-05T02:41:35;101946.53;;;4.78;100.00
8627;BME280;4351;51.422;6.794;2023-03-05T02:44:04;101948.47;;;4.69;100.00
8627;BME280;4351;51.422;6.794;2023-03-05T02:46:32;101943.97;;;4.71;100.00
8627;BME280;4351;51.422;6.794;2023-03-05T02:49:00;101945.69;;;4.76;100.00
8627;BME280;4351;51.422;6.794;2023-03-05T02:51:28;101942.78;;;4.88;100.00
8627;BME280;4351;51.422;6.794;2023-03-05T02:53:58;101944.75;;;4.77;100.00
8627;BME280;4351;51.422;6.794;2023-03-05T02:56:28;101939.16;;;5.40;100.00
8627;BME280;4351;51.422;6.794;2023-03-05T02:58:56;101931.81;;;5.04;100.00
8627;BME280;4351;51.422;6.794;2023-03-05T03:01:24;101928.50;;;4.91;100.00
8627;BME280;4351;51.422;6.794;2023-03-05T03:03:54;101911.19;;;4.60;100.00
8627;BME280;4351;51.422;6.794;2023-03-05T03:06:22;101918.13;;;4.70;100.00
8627;BME280;4351;51.422;6.794;2023-03-05T03:08:49;101917.50;;;4.56;100.00
8627;BME280;4351;51.422;6.794;2023-03-05T03:11:19;101915.63;;;4.59;100.00
8627;BME280;4351;51.422;6.794;2023-03-05T03:13:47;101910.22;;;4.64;100.00
8627;BME280;4351;51.422;6.794;2023-03-05T03:16:15;101913.81;;;4.62;100.00
8627;BME280;4351;51.422;6.794;2023-03-05T03:18:43;101901.25;;;4.67;100.00
8627;BME280;4351;51.422;6.794;2023-03-05T03:21:18;101912.03;;;4.62;100.00
8627;BME280;4351;51.422;6.794;2023-03-05T03:23:46;101897.66;;;4.69;100.00
8627;BME280;4351;51.422;6.794;2023-03-05T03:26:14;101900.25;;;4.72;100.00
8627;BME280;4351;51.422;6.794;2023-03-05T03:28:44;101896.97;;;4.58;100.00
8627;BME280;4351;51.422;6.794;2023-03-05T03:31:12;101901.38;;;4.60;100.00
8627;BME280;4351;51.422;6.794;2023-03-05T03:33:40;101903.94;;;4.65;100.00
8627;BME280;4351;51.422;6.794;2023-03-05T03:36:08;101887.97;;;4.62;100.00
8627;BME280;4351;51.422;6.794;2023-03-05T03:38:37;101884.38;;;4.63;100.00
8627;BME280;4351;51.422;6.794;2023-03-05T03:41:05;101886.00;;;4.72;100.00
8627;BME280;4351;51.422;6.794;2023-03-05T03:43:33;101884.19;;;4.76;100.00
8627;BME280;4351;51.422;6.794;2023-03-05T03:46:04;101876.28;;;4.68;100.00
8627;BME280;4351;51.422;6.794;2023-03-05T03:48:33;101872.97;;;5.04;100.00
8627;BME280;4351;51.422;6.794;2023-03-05T03:51:03;101863.69;;;5.24;100.00
8627;BME280;4351;51.422;6.794;2023-03-05T03:53:31;101855.00;;;4.62;100.00
8627;BME280;4351;51.422;6.794;2023-03-05T03:55:59;101856.31;;;4.37;100.00
8627;BME280;4351;51.422;6.794;2023-03-05T03:58:27;101861.38;;;4.53;100.00
8627;BME280;4351;51.422;6.794;2023-03-05T04:00:55;101859.16;;;4.80;100.00
8627;BME280;4351;51.422;6.794;2023-03-05T04:03:25;101849.69;;;4.60;100.00
8627;BME280;4351;51.422;6.794;2023-03-05T04:05:53;101857.59;;;4.66;100.00
8627;BME280;4351;51.422;6.794;2023-03-05T04:08:20;101854.31;;;4.52;100.00
8627;BME280;4351;51.422;6.794;2023-03-05T04:10:49;101848.69;;;4.66;100.00
8627;BME280;4351;51.422;6.794;2023-03-05T04:13:16;101855.28;;;4.46;100.00
8627;BME280;4351;51.422;6.794;2023-03-05T04:15:44;101857.16;;;4.41;100.00
8627;BME280;4351;51.422;6.794;2023-03-05T04:18:12;101857.25;;;4.33;100.00
8627;BME280;4351;51.422;6.794;2023-03-05T04:20:42;101861.72;;;4.32;100.00
8627;BME280;4351;51.422;6.794;2023-03-05T04:23:09;101862.69;;;4.28;100.00
8627;BME280;4351;51.422;6.794;2023-03-05T04:25:37;101858.19;;;4.30;100.00
8627;BME280;4351;51.422;6.794;2023-03-05T04:28:05;101869.47;;;4.48;100.00
8627;BME280;4351;51.422;6.794;2023-03-05T04:30:33;101868.84;;;4.33;100.00
8627;BME280;4351;51.422;6.794;2023-03-05T04:33:01;101864.28;;;4.40;100.00
8627;BME280;4351;51.422;6.794;2023-03-05T04:35:29;101869.72;;;4.32;100.00
8627;BME280;4351;51.422;6.794;2023-03-05T04:37:59;101870.72;;;4.27;100.00
8627;BME280;4351;51.422;6.794;2023-03-05T04:40:27;101868.81;;;4.35;100.00
8627;BME280;4351;51.422;6.794;2023-03-05T04:42:55;101868.13;;;4.22;100.00
8627;BME280;4351;51.422;6.794;2023-03-05T04:45:23;101870.44;;;4.44;100.00
8627;BME280;4351;51.422;6.794;2023-03-05T04:47:51;101873.13;;;4.44;100.00
8627;BME280;4351;51.422;6.794;2023-03-05T04:50:19;101865.22;;;4.37;100.00
8627;BME280;4351;51.422;6.794;2023-03-05T04:52:48;101862.69;;;4.30;100.00
8627;BME280;4351;51.422;6.794;2023-03-05T04:55:17;101858.88;;;4.45;100.00
8627;BME280;4351;51.422;6.794;2023-03-05T04:57:45;101845.59;;;4.39;100.00
8627;BME280;4351;51.422;6.794;2023-03-05T05:00:15;101858.13;;;4.35;100.00
8627;BME280;4351;51.422;6.794;2023-03-05T05:02:45;101869.91;;;4.23;100.00
8627;BME280;4351;51.422;6.794;2023-03-05T05:05:16;101870.69;;;4.30;100.00
8627;BME280;4351;51.422;6.794;2023-03-05T05:07:44;101869.03;;;4.21;100.00
8627;BME280;4351;51.422;6.794;2023-03-05T05:10:13;101865.41;;;4.23;100.00
8627;BME280;4351;51.422;6.794;2023-03-05T05:12:42;101867.06;;;4.34;100.00
8627;BME280;4351;51.422;6.794;2023-03-05T05:15:11;101868.00;;;4.31;100.00
8627;BME280;4351;51.422;6.794;2023-03-05T05:17:39;101861.84;;;4.24;100.00
8627;BME280;4351;51.422;6.794;2023-03-05T05:20:10;101857.34;;;4.28;100.00
8627;BME280;4351;51.422;6.794;2023-03-05T05:22:37;101843.78;;;4.39;100.00
8627;BME280;4351;51.422;6.794;2023-03-05T05:25:06;101848.38;;;4.31;100.00
8627;BME280;4351;51.422;6.794;2023-03-05T05:27:35;101831.34;;;4.38;100.00
8627;BME280;4351;51.422;6.794;2023-03-05T05:30:05;101831.13;;;4.51;100.00
8627;BME280;4351;51.422;6.794;2023-03-05T05:32:33;101823.22;;;4.44;100.00
8627;BME280;4351;51.422;6.794;2023-03-05T05:35:02;101828.78;;;4.32;100.00
8627;BME280;4351;51.422;6.794;2023-03-05T05:37:30;101828.00;;;4.23;100.00
8627;BME280;4351;51.422;6.794;2023-03-05T05:39:58;101830.56;;;4.31;100.00
8627;BME280;4351;51.422;6.794;2023-03-05T05:42:26;101829.91;;;4.18;100.00
8627;BME280;4351;51.422;6.794;2023-03-05T05:44:54;101838.81;;;4.19;100.00
8627;BME280;4351;51.422;6.794;2023-03-05T05:47:24;101836.25;;;4.63;100.00
8627;BME280;4351;51.422;6.794;2023-03-05T05:49:51;101833.00;;;4.47;100.00
8627;BME280;4351;51.422;6.794;2023-03-05T05:52:20;101825.19;;;4.33;100.00
8627;BME280;4351;51.422;6.794;2023-03-05T05:54:47;101822.94;;;4.08;100.00
8627;BME280;4351;51.422;6.794;2023-03-05T05:57:15;101820.09;;;4.19;100.00
8627;BME280;4351;51.422;6.794;2023-03-05T05:59:43;101813.72;;;4.28;100.00
8627;BME280;4351;51.422;6.794;2023-03-05T06:02:11;101808.41;;;4.24;100.00
8627;BME280;4351;51.422;6.794;2023-03-05T06:04:40;101817.41;;;4.20;100.00
8627;BME280;4351;51.422;6.794;2023-03-05T06:07:08;101814.75;;;4.19;100.00
8627;BME280;4351;51.422;6.794;2023-03-05T06:09:36;101811.06;;;4.28;100.00
8627;BME280;4351;51.422;6.794;2023-03-05T06:12:05;101812.91;;;4.22;100.00
8627;BME280;4351;51.422;6.794;2023-03-05T06:14:33;101816.53;;;4.18;100.00
8627;BME280;4351;51.422;6.794;2023-03-05T06:17:01;101814.50;;;4.33;100.00
8627;BME280;4351;51.422;6.794;2023-03-05T06:19:29;101815.38;;;4.36;100.00
8627;BME280;4351;51.422;6.794;2023-03-05T06:21:59;101811.72;;;4.41;100.00
8627;BME280;4351;51.422;6.794;2023-03-05T06:24:26;101798.47;;;4.33;100.00
8627;BME280;4351;51.422;6.794;2023-03-05T06:26:54;101801.31;;;4.23;100.00
8627;BME280;4351;51.422;6.794;2023-03-05T06:29:22;101799.41;;;4.32;100.00
8627;BME280;4351;51.422;6.794;2023-03-05T06:31:50;101797.75;;;4.24;100.00
8627;BME280;4351;51.422;6.794;2023-03-05T06:34:18;101797.66;;;4.29;100.00
8627;BME280;4351;51.422;6.794;2023-03-05T06:36:46;101800.28;;;4.31;100.00
8627;BME280;4351;51.422;6.794;2023-03-05T06:39:15;101793.91;;;4.40;100.00
8627;BME280;4351;51.422;6.794;2023-03-05T06:41:43;101790.41;;;4.36;100.00
8627;BME280;4351;51.422;6.794;2023-03-05T06:44:11;101790.34;;;4.41;100.00
8627;BME280;4351;51.422;6.794;2023-03-05T06:46:39;101793.16;;;4.31;100.00
8627;BME280;4351;51.422;6.794;2023-03-05T06:49:07;101795.91;;;4.27;100.00
8627;BME280;4351;51.422;6.794;2023-03-05T06:51:36;101789.09;;;4.59;100.00
8627;BME280;4351;51.422;6.794;2023-03-05T06:54:07;101785.69;;;4.51;100.00
8627;BME280;4351;51.422;6.794;2023-03-05T06:56:38;101780.31;;;4.52;100.00
8627;BME280;4351;51.422;6.794;2023-03-05T06:59:06;101772.28;;;4.54;100.00
8627;BME280;4351;51.422;6.794;2023-03-05T07:01:34;101784.13;;;4.40;100.00
8627;BME280;4351;51.422;6.794;2023-03-05T07:04:02;101782.34;;;4.41;100.00
8627;BME280;4351;51.422;6.794;2023-03-05T07:06:32;101773.38;;;4.42;100.00
8627;BME280;4351;51.422;6.794;2023-03-05T07:09:02;101784.00;;;4.46;100.00
8627;BME280;4351;51.422;6.794;2023-03-05T07:11:30;101781.38;;;4.43;100.00
8627;BME280;4351;51.422;6.794;2023-03-05T07:14:00;101766.88;;;4.57;100.00
8627;BME280;4351;51.422;6.794;2023-03-05T07:16:30;101771.66;;;4.39;100.00
8627;BME280;4351;51.422;6.794;2023-03-05T07:19:00;101777.69;;;4.51;100.00
8627;BME280;4351;51.422;6.794;2023-03-05T07:21:31;101769.59;;;4.55;100.00
8627;BME280;4351;51.422;6.794;2023-03-05T07:24:01;101772.19;;;4.60;100.00
8627;BME280;4351;51.422;6.794;2023-03-05T07:26:31;101778.66;;;4.46;100.00
8627;BME280;4351;51.422;6.794;2023-03-05T07:29:02;101765.06;;;4.59;100.00
8627;BME280;4351;51.422;6.794;2023-03-05T07:31:31;101770.72;;;4.42;100.00
8627;BME280;4351;51.422;6.794;2023-03-05T07:34:00;101765.25;;;4.50;100.00
8627;BME280;4351;51.422;6.794;2023-03-05T07:36:29;101768.84;;;4.45;100.00
8627;BME280;4351;51.422;6.794;2023-03-05T07:39:01;101772.19;;;4.60;100.00
8627;BME280;4351;51.422;6.794;2023-03-05T07:41:31;101777.81;;;4.44;100.00
8627;BME280;4351;51.422;6.794;2023-03-05T07:43:59;101767.59;;;4.65;100.00
8627;BME280;4351;51.422;6.794;2023-03-05T07:46:32;101763.31;;;4.58;100.00
8627;BME280;4351;51.422;6.794;2023-03-05T07:49:00;101764.88;;;4.68;100.00
8627;BME280;4351;51.422;6.794;2023-03-05T07:51:29;101770.28;;;4.65;100.00
8627;BME280;4351;51.422;6.794;2023-03-05T07:53:58;101763.16;;;4.66;100.00
8627;BME280;4351;51.422;6.794;2023-03-05T07:56:28;101756.25;;;4.54;100.00
8627;BME280;4351;51.422;6.794;2023-03-05T07:58:58;101761.41;;;4.63;100.00
8627;BME280;4351;51.422;6.794;2023-03-05T08:01:26;101772.22;;;4.57;100.00
8627;BME280;4351;51.422;6.794;2023-03-05T08:03:56;101768.09;;;4.40;100.00
8627;BME280;4351;51.422;6.794;2023-03-05T08:06:24;101770.47;;;4.56;100.00
8627;BME280;4351;51.422;6.794;2023-03-05T08:08:52;101776.03;;;4.43;100.00
8627;BME280;4351;51.422;6.794;2023-03-05T08:11:20;101785.78;;;4.47;100.00
8627;BME280;4351;51.422;6.794;2023-03-05T08:13:49;101789.47;;;4.40;100.00
8627;BME280;4351;51.422;6.794;2023-03-05T08:16:19;101788.13;;;4.63;100.00
8627;BME280;4351;51.422;6.794;2023-03-05T08:18:47;101788.13;;;4.63;100.00
8627;BME280;4351;51.422;6.794;2023-03-05T08:21:19;101798.25;;;4.47;100.00
8627;BME280;4351;51.422;6.794;2023-03-05T08:23:48;101798.63;;;4.76;100.00
8627;BME280;4351;51.422;6.794;2023-03-05T08:26:17;101799.63;;;4.68;100.00
8627;BME280;4351;51.422;6.794;2023-03-05T08:28:46;101793.72;;;4.51;100.00
8627;BME280;4351;51.422;6.794;2023-03-05T08:31:18;101788.91;;;4.71;100.00
8627;BME280;4351;51.422;6.794;2023-03-05T08:33:47;101795.53;;;4.96;100.00
8627;BME280;4351;51.422;6.794;2023-03-05T08:36:17;101789.75;;;4.74;100.00
8627;BME280;4351;51.422;6.794;2023-03-05T08:38:45;101786.09;;;4.78;100.00
8627;BME280;4351;51.422;6.794;2023-03-05T08:41:15;101780.88;;;4.71;100.00
8627;BME280;4351;51.422;6.794;2023-03-05T08:43:43;101786.09;;;4.78;100.00
8627;BME280;4351;51.422;6.794;2023-03-05T08:46:13;101782.63;;;4.72;100.00
8627;BME280;4351;51.422;6.794;2023-03-05T08:48:41;101779.91;;;4.76;100.00
8627;BME280;4351;51.422;6.794;2023-03-05T08:51:11;101772.00;;;4.69;100.00
8627;BME280;4351;51.422;6.794;2023-03-05T08:53:42;101772.22;;;5.04;100.00
8627;BME280;4351;51.422;6.794;2023-03-05T08:56:11;101769.81;;;4.90;100.00
8627;BME280;4351;51.422;6.794;2023-03-05T08:58:40;101775.75;;;5.05;100.00
8627;BME280;4351;51.422;6.794;2023-03-05T09:01:08;101766.09;;;4.98;100.00
8627;BME280;4351;51.422;6.794;2023-03-05T09:03:36;101765.66;;;4.75;100.00
8627;BME280;4351;51.422;6.794;2023-03-05T09:06:07;101774.47;;;4.79;100.00
8627;BME280;4351;51.422;6.794;2023-03-05T09:08:35;101772.75;;;4.76;100.00
8627;BME280;4351;51.422;6.794;2023-03-05T09:11:06;101788.69;;;4.82;100.00
8627;BME280;4351;51.422;6.794;2023-03-05T09:13:35;101786.88;;;4.83;100.00
8627;BME280;4351;51.422;6.794;2023-03-05T09:16:05;101787.72;;;4.85;100.00
8627;BME280;4351;51.422;6.794;2023-03-05T09:18:34;101784.84;;;4.96;100.00
8627;BME280;4351;51.422;6.794;2023-03-05T09:21:04;101772.31;;;5.00;100.00
8627;BME280;4351;51.422;6.794;2023-03-05T09:23:32;101776.94;;;4.90;100.00
8627;BME280;4351;51.422;6.794;2023-03-05T09:26:00;101776.59;;;5.07;100.00
8627;BME280;4351;51.422;6.794;2023-03-05T09:28:30;101770.16;;;5.16;100.00
8627;BME280;4351;51.422;6.794;2023-03-05T09:31:01;101772.69;;;5.24;100.00
8627;BME280;4351;51.422;6.794;2023-03-05T09:33:29;101769.84;;;5.32;100.00
8627;BME280;4351;51.422;6.794;2023-03-05T09:35:57;101765.78;;;5.53;100.00
8627;BME280;4351;51.422;6.794;2023-03-05T09:38:25;101761.56;;;5.43;100.00
8627;BME280;4351;51.422;6.794;2023-03-05T09:40:57;101750.72;;;5.49;100.00
8627;BME280;4351;51.422;6.794;2023-03-05T09:43:40;101740.94;;;5.48;100.00
8627;BME280;4351;51.422;6.794;2023-03-05T09:46:26;101733.06;;;5.42;100.00
8627;BME280;4351;51.422;6.794;2023-03-05T09:49:01;101729.75;;;5.30;100.00
8627;BME280;4351;51.422;6.794;2023-03-05T09:51:35;101724.25;;;5.36;100.00
8627;BME280;4351;51.422;6.794;2023-03-05T09:54:10;101715.31;;;5.37;100.00
8627;BME280;4351;51.422;6.794;2023-03-05T09:56:41;101706.63;;;5.66;100.00
8627;BME280;4351;51.422;6.794;2023-03-05T09:59:22;101699.34;;;5.72;100.00
8627;BME280;4351;51.422;6.794;2023-03-05T10:01:55;101686.50;;;5.85;100.00
8627;BME280;4351;51.422;6.794;2023-03-05T10:04:27;101687.00;;;5.65;100.00
8627;BME280;4351;51.422;6.794;2023-03-05T10:06:59;101683.44;;;5.64;100.00
8627;BME280;4351;51.422;6.794;2023-03-05T10:09:42;101679.00;;;5.63;100.00
8627;BME280;4351;51.422;6.794;2023-03-05T10:12:19;101673.78;;;5.57;100.00
8627;BME280;4351;51.422;6.794;2023-03-05T10:14:52;101662.63;;;5.76;100.00
8627;BME280;4351;51.422;6.794;2023-03-05T10:17:34;101656.22;;;5.83;100.00
8627;BME280;4351;51.422;6.794;2023-03-05T10:20:29;101649.75;;;5.91;100.00
8627;BME280;4351;51.422;6.794;2023-03-05T10:23:22;101631.94;;;6.23;100.00
8627;BME280;4351;51.422;6.794;2023-03-05T10:26:01;101627.59;;;5.85;100.00
8627;BME280;4351;51.422;6.794;2023-03-05T10:28:34;101631.84;;;5.93;100.00
8627;BME280;4351;51.422;6.794;2023-03-05T10:31:17;101627.25;;;5.98;100.00
8627;BME280;4351;51.422;6.794;2023-03-05T10:33:58;101626.16;;;6.05;100.00
8627;BME280;4351;51.422;6.794;2023-03-05T10:36:38;101617.16;;;6.09;100.00
8627;BME280;4351;51.422;6.794;2023-03-05T10:39:33;101609.88;;;6.45;100.00
8627;BME280;4351;51.422;6.794;2023-03-05T10:42:14;101602.56;;;6.20;100.00
8627;BME280;4351;51.422;6.794;2023-03-05T10:44:48;101601.69;;;6.19;100.00
8627;BME280;4351;51.422;6.794;2023-03-05T10:47:24;101596.56;;;6.12;100.00
8627;BME280;4351;51.422;6.794;2023-03-05T10:49:54;101597.78;;;5.98;100.00
8627;BME280;4351;51.422;6.794;2023-03-05T10:52:27;101602.31;;;6.29;100.00
8627;BME280;4351;51.422;6.794;2023-03-05T10:54:56;101584.22;;;6.38;100.00
8627;BME280;4351;51.422;6.794;2023-03-05T10:57:30;101576.56;;;6.24;100.00
8627;BME280;4351;51.422;6.794;2023-03-05T11:00:09;101574.31;;;6.40;100.00
8627;BME280;4351;51.422;6.794;2023-03-05T11:02:55;101556.25;;;6.47;100.00
8627;BME280;4351;51.422;6.794;2023-03-05T11:05:46;101553.97;;;6.32;100.00
8627;BME280;4351;51.422;6.794;2023-03-05T11:08:27;101548.16;;;6.48;100.00
8627;BME280;4351;51.422;6.794;2023-03-05T11:11:04;101547.19;;;6.51;100.00
8627;BME280;4351;51.422;6.794;2023-03-05T11:13:33;101539.38;;;6.72;100.00
8627;BME280;4351;51.422;6.794;2023-03-05T11:16:04;101547.22;;;6.19;100.00
8627;BME280;4351;51.422;6.794;2023-03-05T11:18:34;101543.53;;;6.53;100.00
8627;BME280;4351;51.422;6.794;2023-03-05T11:21:08;101531.41;;;6.70;100.00
8627;BME280;4351;51.422;6.794;2023-03-05T11:23:37;101524.28;;;6.69;100.00
8627;BME280;4351;51.422;6.794;2023-03-05T11:26:17;101521.91;;;6.87;100.00
8627;BME280;4351;51.422;6.794;2023-03-05T11:28:57;101507.75;;;7.10;100.00
8627;BME280;4351;51.422;6.794;2023-03-05T11:31:26;101505.06;;;7.63;100.00
8627;BME280;4351;51.422;6.794;2023-03-05T11:33:59;101499.00;;;7.31;100.00
8627;BME280;4351;51.422;6.794;2023-03-05T11:36:29;101495.16;;;7.12;100.00
8627;BME280;4351;51.422;6.794;2023-03-05T11:39:02;101489.56;;;6.93;100.00
8627;BME280;4351;51.422;6.794;2023-03-05T11:41:38;101496.16;;;7.10;100.00
8627;BME280;4351;51.422;6.794;2023-03-05T11:44:11;101485.56;;;7.32;100.00
8627;BME280;4351;51.422;6.794;2023-03-05T11:46:42;101473.44;;;7.46;100.00
8627;BME280;4351;51.422;6.794;2023-03-05T11:49:17;101466.47;;;7.40;100.00
8627;BME280;4351;51.422;6.794;2023-03-05T11:51:51;101464.84;;;7.36;100.00
8627;BME280;4351;51.422;6.794;2023-03-05T11:54:27;101459.56;;;7.58;100.00
8627;BME280;4351;51.422;6.794;2023-03-05T11:56:58;101456.56;;;7.42;100.00
8627;BME280;4351;51.422;6.794;2023-03-05T11:59:30;101449.25;;;7.46;100.00
8627;BME280;4351;51.422;6.794;2023-03-05T12:02:00;101453.00;;;7.16;100.00
8627;BME280;4351;51.422;6.794;2023-03-05T12:04:31;101443.47;;;7.33;100.00
8627;BME280;4351;51.422;6.794;2023-03-05T12:07:02;101437.38;;;7.53;100.00
8627;BME280;4351;51.422;6.794;2023-03-05T12:09:36;101422.94;;;7.32;100.00
8627;BME280;4351;51.422;6.794;2023-03-05T12:12:15;101425.84;;;7.26;100.00
8627;BME280;4351;51.422;6.794;2023-03-05T12:14:49;101426.97;;;7.18;100.00
8627;BME280;4351;51.422;6.794;2023-03-05T12:17:21;101423.69;;;7.10;100.00
8627;BME280;4351;51.422;6.794;2023-03-05T12:19:57;101415.72;;;7.08;100.00
8627;BME280;4351;51.422;6.794;2023-03-05T12:22:33;101413.44;;;6.96;100.00
8627;BME280;4351;51.422;6.794;2023-03-05T12:25:23;101405.06;;;6.80;100.00
8627;BME280;4351;51.422;6.794;2023-03-05T12:27:51;101414.75;;;6.84;100.00
8627;BME280;4351;51.422;6.794;2023-03-05T12:30:53;101404.91;;;7.10;100.00
8627;BME280;4351;51.422;6.794;2023-03-05T12:33:31;101399.34;;;6.89;100.00
8627;BME280;4351;51.422;6.794;2023-03-05T12:36:37;101386.50;;;6.73;100.00
8627;BME280;4351;51.422;6.794;2023-03-05T12:39:49;101394.09;;;6.59;100.00
8627;BME280;4351;51.422;6.794;2023-03-05T12:42:44;101383.06;;;6.68;100.00
8627;BME280;4351;51.422;6.794;2023-03-05T12:45:26;101380.03;;;6.79;100.00
8627;BME280;4351;51.422;6.794;2023-03-05T12:50:59;101359.19;;;6.87;100.00
8627;BME280;4351;51.422;6.794;2023-03-05T12:53:29;101361.34;;;6.76;100.00
8627;BME280;4351;51.422;6.794;2023-03-05T12:56:00;101348.28;;;6.92;100.00
8627;BME280;4351;51.422;6.794;2023-03-05T12:58:37;101351.34;;;7.07;100.00
8627;BME280;4351;51.422;6.794;2023-03-05T13:01:19;101344.59;;;7.20;100.00
8627;BME280;4351;51.422;6.794;2023-03-05T13:03:53;101346.44;;;6.94;100.00
8627;BME280;4351;51.422;6.794;2023-03-05T13:06:25;101344.06;;;6.85;100.00
8627;BME280;4351;51.422;6.794;2023-03-05T13:09:01;101340.25;;;6.92;100.00
8627;BME280;4351;51.422;6.794;2023-03-05T13:11:31;101333.19;;;6.89;100.00
8627;BME280;4351;51.422;6.794;2023-03-05T13:14:01;101329.50;;;6.92;100.00
8627;BME280;4351;51.422;6.794;2023-03-05T13:16:36;101327.41;;;7.00;100.00
8627;BME280;4351;51.422;6.794;2023-03-05T13:19:14;101319.38;;;7.00;100.00
8627;BME280;4351;51.422;6.794;2023-03-05T13:21:43;101324.09;;;7.19;100.00
8627;BME280;4351;51.422;6.794;2023-03-05T13:24:16;101318.97;;;7.37;100.00
8627;BME280;4351;51.422;6.794;2023-03-05T13:26:45;101316.06;;;7.18;100.00
8627;BME280;4351;51.422;6.794;2023-03-05T13:29:15;101306.63;;;7.07;100.00
8627;BME280;4351;51.422;6.794;2023-03-05T13:31:45;101305.03;;;7.01;100.00
8627;BME280;4351;51.422;6.794;2023-03-05T13:34:17;101300.84;;;7.18;100.00